createdAt,value
2018-03-07T00:01:02.824Z,39.95
2018-03-07T00:03:30.327Z,43.58
2018-03-07T00:05:57.834Z,40.05
2018-03-07T00:08:25.332Z,42.95
2018-03-07T00:10:52.900Z,41.70
2018-03-07T00:13:20.415Z,43.25
2018-03-07T00:15:47.914Z,42.33
2018-03-07T00:18:15.416Z,44.38
2018-03-07T00:20:42.903Z,45.38
2018-03-07T00:23:10.421Z,43.15
2018-03-07T00:25:37.910Z,41.45
2018-03-07T00:28:05.408Z,42.67
2018-03-07T00:30:32.915Z,42.28
2018-03-07T00:33:00.407Z,42.97
2018-03-07T00:35:27.903Z,41.58
2018-03-07T00:37:55.411Z,41.58
2018-03-07T00:40:22.915Z,40.85
2018-03-07T00:42:50.800Z,42.83
2018-03-07T00:45:18.298Z,40.67
2018-03-07T00:47:46.227Z,41.05
2018-03-07T00:50:13.713Z,40.90
2018-03-07T00:52:41.217Z,42.35
2018-03-07T00:55:09.092Z,42.28
2018-03-07T00:57:36.579Z,44.33
2018-03-07T01:00:04.070Z,43.13
2018-03-07T01:02:31.551Z,43.75
2018-03-07T01:04:59.438Z,43.58
2018-03-07T01:07:26.925Z,43.63
2018-03-07T01:09:54.432Z,45.78
2018-03-07T01:12:22.315Z,41.60
2018-03-07T01:14:49.799Z,43.25
2018-03-07T01:17:17.336Z,43.10
2018-03-07T01:19:44.832Z,43.53
2018-03-07T01:22:12.355Z,42.95
2018-03-07T01:24:39.844Z,45.95
2018-03-07T01:27:07.378Z,41.13
2018-03-07T01:29:35.647Z,44.38
2018-03-07T01:32:03.173Z,46.88
2018-03-07T01:34:30.678Z,45.78
2018-03-07T01:36:58.169Z,47.25
2018-03-07T01:39:25.683Z,45.45
2018-03-07T01:41:53.174Z,48.38
2018-03-07T01:44:20.679Z,47.15
2018-03-07T01:46:48.561Z,44.22
2018-03-07T01:49:16.059Z,45.20
2018-03-07T01:51:55.553Z,44.42
2018-03-07T01:54:23.038Z,44.80
2018-03-07T01:56:50.535Z,43.30
2018-03-07T01:59:18.453Z,40.03
2018-03-07T02:01:45.978Z,43.75
2018-03-07T02:04:13.508Z,44.25
2018-03-07T02:06:41.407Z,43.90
2018-03-07T02:09:08.959Z,43.55
2018-03-07T02:11:36.468Z,48.95
2018-03-07T02:14:03.955Z,44.03
2018-03-07T02:16:31.839Z,43.42
2018-03-07T02:18:59.363Z,43.25
2018-03-07T02:21:27.687Z,43.40
2018-03-07T02:23:55.190Z,43.90
2018-03-07T02:26:22.690Z,46.95
2018-03-07T02:28:50.168Z,45.03
2018-03-07T02:31:17.667Z,42.65
2018-03-07T02:33:45.167Z,43.75
2018-03-07T02:36:24.541Z,44.80
2018-03-07T02:38:52.048Z,42.10
2018-03-07T02:41:19.543Z,45.22
2018-03-07T02:43:47.052Z,46.47
2018-03-07T02:46:14.545Z,46.83
2018-03-07T02:48:42.066Z,46.45
2018-03-07T02:51:09.972Z,48.55
2018-03-07T02:53:37.457Z,46.80
2018-03-07T02:56:05.698Z,46.67
2018-03-07T02:58:33.566Z,48.63
2018-03-07T03:01:01.051Z,47.80
2018-03-07T03:03:28.562Z,47.40
2018-03-07T03:05:56.059Z,46.90
2018-03-07T03:08:23.560Z,45.17
2018-03-07T03:10:51.457Z,45.58
2018-03-07T03:13:18.949Z,45.05
2018-03-07T03:15:46.434Z,45.30
2018-03-07T03:18:14.343Z,45.47
2018-03-07T03:20:41.835Z,43.38
2018-03-07T03:23:09.323Z,44.33
2018-03-07T03:25:37.222Z,46.45
2018-03-07T03:28:04.712Z,44.30
2018-03-07T03:30:32.201Z,44.38
2018-03-07T03:33:00.096Z,44.75
2018-03-07T03:35:27.620Z,44.05
2018-03-07T03:37:55.499Z,45.80
2018-03-07T03:40:22.995Z,45.60
2018-03-07T03:42:50.494Z,45.58
2018-03-07T03:45:17.979Z,46.83
2018-03-07T03:47:45.490Z,47.38
2018-03-07T03:50:13.004Z,46.42
2018-03-07T03:52:40.496Z,45.67
2018-03-07T03:55:07.976Z,47.20
2018-03-07T03:57:35.499Z,46.75
2018-03-07T04:00:02.987Z,46.40
2018-03-07T04:02:30.495Z,46.60
2018-03-07T04:04:58.013Z,46.92
2018-03-07T04:07:25.900Z,46.90
2018-03-07T04:09:53.403Z,47.25
2018-03-07T04:12:20.908Z,46.97
2018-03-07T04:14:48.416Z,47.25
2018-03-07T04:17:15.902Z,47.42
2018-03-07T04:19:43.837Z,48.17
2018-03-07T04:22:11.314Z,50.35
2018-03-07T04:24:38.825Z,50.65
2018-03-07T04:27:06.318Z,50.78
2018-03-07T04:29:33.805Z,49.40
2018-03-07T04:32:01.707Z,47.55
2018-03-07T04:34:29.203Z,47.90
2018-03-07T04:36:56.699Z,50.28
2018-03-07T04:39:24.215Z,47.58
2018-03-07T04:41:51.720Z,50.90
2018-03-07T04:44:19.215Z,49.80
2018-03-07T04:46:46.702Z,51.28
2018-03-07T04:49:14.195Z,48.45
2018-03-07T04:51:41.684Z,50.10
2018-03-07T04:54:09.184Z,50.53
2018-03-07T04:56:37.091Z,48.38
2018-03-07T04:59:04.581Z,49.85
2018-03-07T05:01:32.067Z,52.05
2018-03-07T05:03:59.979Z,51.15
2018-03-07T05:06:27.473Z,49.45
2018-03-07T05:08:54.967Z,50.05
2018-03-07T05:11:22.454Z,50.95
2018-03-07T05:13:49.948Z,50.35
2018-03-07T05:16:17.446Z,52.72
2018-03-07T05:18:44.968Z,51.22
2018-03-07T05:21:12.458Z,50.53
2018-03-07T05:23:39.951Z,49.95
2018-03-07T05:26:07.447Z,49.63
2018-03-07T05:28:35.348Z,48.90
2018-03-07T05:31:02.831Z,50.45
2018-03-07T05:33:30.323Z,52.08
2018-03-07T05:35:58.218Z,51.85
2018-03-07T05:38:25.707Z,54.17
2018-03-07T05:40:53.211Z,52.45
2018-03-07T05:43:21.082Z,51.53
2018-03-07T05:45:48.564Z,52.72
2018-03-07T05:48:16.060Z,48.70
2018-03-07T05:50:43.575Z,50.83
2018-03-07T05:53:11.066Z,50.88
2018-03-07T05:55:38.572Z,52.10
2018-03-07T05:58:06.448Z,52.10
2018-03-07T06:00:33.955Z,52.42
2018-03-07T06:03:01.457Z,56.53
2018-03-07T06:05:29.346Z,54.00
2018-03-07T06:07:56.844Z,54.08
2018-03-07T06:10:24.338Z,54.05
2018-03-07T06:12:52.227Z,58.08
2018-03-07T06:15:19.731Z,55.12
2018-03-07T06:17:47.221Z,54.60
2018-03-07T06:20:14.738Z,55.10
2018-03-07T06:22:42.224Z,57.85
2018-03-07T06:25:09.727Z,55.53
2018-03-07T06:27:37.228Z,55.85
2018-03-07T06:30:05.110Z,55.95
2018-03-07T06:32:32.623Z,57.60
2018-03-07T06:35:00.128Z,58.25
2018-03-07T06:37:27.626Z,57.17
2018-03-07T06:39:55.142Z,56.83
2018-03-07T06:42:22.667Z,56.90
2018-03-07T06:44:50.162Z,59.22
2018-03-07T06:47:17.667Z,56.35
2018-03-07T06:49:45.178Z,56.50
2018-03-07T06:52:12.687Z,57.28
2018-03-07T06:54:40.199Z,56.40
2018-03-07T06:57:07.727Z,55.40
2018-03-07T06:59:35.224Z,58.70
2018-03-07T07:02:02.723Z,57.13
2018-03-07T07:04:30.231Z,61.97
2018-03-07T07:06:57.728Z,57.60
2018-03-07T07:09:25.235Z,58.38
2018-03-07T07:11:52.775Z,59.03
2018-03-07T07:14:20.680Z,58.63
2018-03-07T07:16:48.186Z,58.33
2018-03-07T07:19:15.710Z,57.50
2018-03-07T07:21:43.215Z,59.03
2018-03-07T07:24:11.126Z,56.92
2018-03-07T07:26:38.618Z,59.40
2018-03-07T07:29:06.142Z,58.28
2018-03-07T07:31:33.639Z,58.40
2018-03-07T07:34:01.195Z,59.35
2018-03-07T07:36:28.715Z,60.85
2018-03-07T07:38:56.211Z,61.05
2018-03-07T07:41:23.712Z,61.03
2018-03-07T07:43:51.216Z,63.07
2018-03-07T07:46:18.721Z,58.08
2018-03-07T07:48:46.237Z,60.67
2018-03-07T07:51:13.740Z,60.60
2018-03-07T07:53:41.231Z,59.75
2018-03-07T07:56:08.736Z,63.80
2018-03-07T07:58:36.257Z,66.80
2018-03-07T08:01:03.755Z,61.80
2018-03-07T08:03:31.661Z,60.33
2018-03-07T08:05:59.200Z,62.65
2018-03-07T08:08:26.708Z,56.60
2018-03-07T08:10:54.203Z,56.87
2018-03-07T08:13:21.712Z,55.17
2018-03-07T08:15:49.231Z,58.30
2018-03-07T08:18:16.814Z,57.67
2018-03-07T08:20:44.292Z,59.27
2018-03-07T08:23:11.791Z,58.70
2018-03-07T08:25:39.342Z,56.97
2018-03-07T08:28:06.856Z,62.17
2018-03-07T08:30:34.367Z,61.73
2018-03-07T08:33:01.859Z,63.70
2018-03-07T08:35:29.355Z,61.33
2018-03-07T08:37:57.252Z,62.53
2018-03-07T08:40:24.755Z,61.77
2018-03-07T08:42:52.267Z,65.40
2018-03-07T08:45:19.761Z,61.10
2018-03-07T08:47:47.256Z,62.63
2018-03-07T08:50:15.153Z,64.00
2018-03-07T08:52:42.639Z,61.57
2018-03-07T08:55:10.147Z,61.20
2018-03-07T08:57:38.036Z,61.07
2018-03-07T09:00:05.547Z,59.90
2018-03-07T09:02:33.083Z,60.20
2018-03-07T09:05:00.582Z,59.87
2018-03-07T09:07:28.476Z,58.43
2018-03-07T09:09:55.967Z,58.10
2018-03-07T09:12:23.480Z,55.73
2018-03-07T09:14:50.967Z,55.50
2018-03-07T09:17:18.496Z,59.23
2018-03-07T09:19:46.000Z,60.13
2018-03-07T09:22:13.498Z,60.37
2018-03-07T09:24:41.408Z,60.57
2018-03-07T09:27:08.907Z,58.27
2018-03-07T09:29:36.797Z,61.27
2018-03-07T09:32:04.340Z,61.03
2018-03-07T09:34:32.234Z,58.70
2018-03-07T09:36:59.740Z,61.37
2018-03-07T09:39:27.263Z,59.57
2018-03-07T09:41:54.770Z,63.03
2018-03-07T09:44:22.667Z,60.43
2018-03-07T09:46:50.175Z,59.43
2018-03-07T09:49:17.672Z,59.33
2018-03-07T09:51:45.184Z,61.10
2018-03-07T09:54:12.698Z,61.83
2018-03-07T09:56:40.255Z,60.67
2018-03-07T09:59:07.716Z,62.20
2018-03-07T10:01:35.220Z,65.73
2018-03-07T10:04:02.737Z,65.37
2018-03-07T10:06:30.239Z,64.27
2018-03-07T10:08:57.755Z,63.73
2018-03-07T10:11:25.252Z,63.90
2018-03-07T10:13:52.761Z,65.77
2018-03-07T10:16:20.273Z,63.87
2018-03-07T10:18:48.188Z,64.23
2018-03-07T10:21:15.689Z,66.30
2018-03-07T10:23:43.218Z,64.07
2018-03-07T10:26:10.710Z,66.87
2018-03-07T10:28:38.213Z,66.30
2018-03-07T10:31:05.726Z,61.33
2018-03-07T10:33:33.239Z,64.27
2018-03-07T10:36:00.732Z,60.37
2018-03-07T10:38:28.217Z,65.13
2018-03-07T10:40:55.711Z,63.93
2018-03-07T10:43:23.199Z,64.73
2018-03-07T10:45:50.696Z,65.10
2018-03-07T10:48:18.583Z,65.50
2018-03-07T10:50:46.147Z,65.47
2018-03-07T10:53:13.669Z,63.07
2018-03-07T10:55:41.672Z,64.10
2018-03-07T10:58:09.200Z,63.77
2018-03-07T11:00:38.892Z,66.57
2018-03-07T11:03:06.407Z,64.80
2018-03-07T11:05:34.616Z,63.63
2018-03-07T11:08:02.226Z,60.87
2018-03-07T11:10:29.728Z,59.87
2018-03-07T11:12:57.234Z,60.17
2018-03-07T11:15:24.756Z,60.60
2018-03-07T11:17:52.247Z,55.33
2018-03-07T11:20:19.875Z,53.97
2018-03-07T11:22:47.818Z,56.30
2018-03-07T11:25:15.327Z,57.53
2018-03-07T11:27:43.030Z,44.00
2018-03-07T11:30:10.576Z,42.80
2018-03-07T11:32:38.073Z,33.87
2018-03-07T11:35:05.580Z,40.60
2018-03-07T11:37:33.081Z,40.57
2018-03-07T11:40:00.583Z,33.37
2018-03-07T11:42:28.088Z,44.10
2018-03-07T11:44:55.604Z,41.30
2018-03-07T11:47:23.091Z,39.83
2018-03-07T11:49:50.599Z,37.57
2018-03-07T11:52:18.488Z,36.13
2018-03-07T11:54:45.983Z,40.47
2018-03-07T11:57:13.484Z,34.90
2018-03-07T11:59:40.967Z,20.50
2018-03-07T12:02:08.466Z,30.63
2018-03-07T12:04:35.967Z,30.80
2018-03-07T12:07:03.517Z,31.07
2018-03-07T12:09:31.031Z,33.90
2018-03-07T12:11:58.540Z,36.77
2018-03-07T12:14:26.062Z,32.43
2018-03-07T12:16:53.664Z,28.87
2018-03-07T12:19:21.198Z,26.60
2018-03-07T12:21:49.089Z,30.33
2018-03-07T12:24:16.587Z,29.67
2018-03-07T12:26:44.089Z,29.40
2018-03-07T12:29:11.571Z,29.13
2018-03-07T12:31:39.099Z,27.40
2018-03-07T12:34:06.591Z,30.93
2018-03-07T12:36:34.092Z,30.40
2018-03-07T12:39:01.986Z,29.43
2018-03-07T12:41:29.491Z,28.67
2018-03-07T12:43:56.990Z,30.13
2018-03-07T12:46:24.889Z,31.67
2018-03-07T12:48:52.414Z,33.23
2018-03-07T12:51:19.903Z,33.70
2018-03-07T12:53:47.417Z,32.07
2018-03-07T12:56:15.305Z,30.03
2018-03-07T12:58:42.806Z,32.47
2018-03-07T13:01:10.319Z,28.93
2018-03-07T13:03:37.815Z,29.63
2018-03-07T13:06:05.299Z,29.33
2018-03-07T13:08:32.824Z,28.57
2018-03-07T13:11:00.316Z,28.17
2018-03-07T13:13:27.828Z,28.73
2018-03-07T13:15:55.514Z,29.23
2018-03-07T13:18:23.060Z,29.70
2018-03-07T13:20:50.580Z,26.47
2018-03-07T13:23:18.094Z,27.93
2018-03-07T13:25:45.606Z,28.23
2018-03-07T13:28:13.114Z,29.40
2018-03-07T13:30:40.609Z,28.07
2018-03-07T13:33:08.182Z,26.80
2018-03-07T13:35:35.718Z,26.00
2018-03-07T13:38:03.613Z,24.73
2018-03-07T13:40:31.351Z,25.93
2018-03-07T13:42:58.866Z,27.13
2018-03-07T13:45:26.357Z,25.20
2018-03-07T13:47:54.243Z,25.17
2018-03-07T13:50:21.732Z,25.20
2018-03-07T13:52:49.239Z,23.53
2018-03-07T13:55:16.748Z,23.70
2018-03-07T13:57:44.253Z,22.60
2018-03-07T14:00:12.138Z,24.03
2018-03-07T14:02:39.686Z,24.00
2018-03-07T14:05:07.369Z,24.20
2018-03-07T14:07:34.860Z,24.33
2018-03-07T14:10:02.373Z,24.67
2018-03-07T14:12:29.928Z,24.80
2018-03-07T14:14:57.419Z,24.10
2018-03-07T14:17:24.917Z,24.83
2018-03-07T14:19:52.795Z,25.57
2018-03-07T14:22:20.682Z,25.90
2018-03-07T14:24:48.211Z,24.07
2018-03-07T14:27:16.116Z,24.77
2018-03-07T14:29:43.671Z,24.97
2018-03-07T14:32:11.170Z,24.17
2018-03-07T14:34:38.665Z,25.20
2018-03-07T14:37:06.327Z,22.77
2018-03-07T14:39:34.231Z,23.27
2018-03-07T14:42:01.743Z,22.17
2018-03-07T14:44:29.645Z,23.43
2018-03-07T14:46:57.153Z,24.07
2018-03-07T14:49:24.652Z,24.10
2018-03-07T14:51:52.154Z,25.67
2018-03-07T14:54:19.658Z,23.47
2018-03-07T14:56:47.148Z,24.13
2018-03-07T14:59:14.644Z,23.10
2018-03-07T15:01:42.546Z,23.07
2018-03-07T15:04:10.079Z,22.43
2018-03-07T15:06:37.959Z,20.50
2018-03-07T15:09:05.459Z,17.93
2018-03-07T15:11:32.958Z,16.53
2018-03-07T15:14:00.455Z,17.00
2018-03-07T15:16:28.959Z,18.57
2018-03-07T15:18:56.472Z,18.83
2018-03-07T15:21:24.016Z,20.00
2018-03-07T15:23:51.959Z,18.50
2018-03-07T15:26:19.487Z,16.27
2018-03-07T15:28:46.992Z,16.03
2018-03-07T15:31:15.001Z,15.43
2018-03-07T15:33:42.492Z,14.90
2018-03-07T15:36:09.985Z,12.47
2018-03-07T15:38:37.535Z,13.87
2018-03-07T15:41:05.452Z,13.37
2018-03-07T15:43:32.964Z,12.70
2018-03-07T15:46:00.510Z,13.97
2018-03-07T15:48:28.000Z,14.87
2018-03-07T15:50:55.520Z,15.30
2018-03-07T15:53:23.039Z,15.47
2018-03-07T15:55:50.538Z,15.77
2018-03-07T15:58:18.438Z,13.10
2018-03-07T16:00:45.930Z,11.80
2018-03-07T16:03:13.536Z,13.03
2018-03-07T16:05:41.516Z,13.77
2018-03-07T16:08:11.920Z,12.87
2018-03-07T16:10:40.275Z,13.90
2018-03-07T16:13:07.793Z,9.87
2018-03-07T16:15:35.307Z,11.07
2018-03-07T16:18:03.214Z,12.90
2018-03-07T16:20:30.712Z,12.40
2018-03-07T16:22:58.218Z,11.73
2018-03-07T16:25:28.131Z,10.47
2018-03-07T16:27:55.628Z,9.93
2018-03-07T16:30:23.127Z,10.00
2018-03-07T16:32:51.011Z,10.20
2018-03-07T16:35:18.581Z,9.60
2018-03-07T16:37:46.107Z,9.80
2018-03-07T16:40:14.041Z,8.97
2018-03-07T16:42:41.594Z,9.57
2018-03-07T16:45:09.083Z,9.47
2018-03-07T16:47:37.055Z,9.20
2018-03-07T16:50:04.600Z,9.17
2018-03-07T16:52:32.539Z,9.20
2018-03-07T16:55:00.164Z,8.40
2018-03-07T16:57:27.675Z,8.93
2018-03-07T16:59:55.233Z,8.07
2018-03-07T17:02:22.866Z,7.93
2018-03-07T17:04:53.328Z,8.63
2018-03-07T17:07:21.361Z,8.73
2018-03-07T17:09:48.905Z,8.43
2018-03-07T17:12:16.507Z,8.87
2018-03-07T17:14:44.079Z,8.17
2018-03-07T17:17:11.725Z,8.83
2018-03-07T17:19:39.376Z,8.53
2018-03-07T17:22:06.855Z,8.13
2018-03-07T17:24:34.439Z,8.87
2018-03-07T17:27:02.520Z,9.00
2018-03-07T17:29:30.031Z,8.77
2018-03-07T17:31:57.533Z,8.50
2018-03-07T17:34:25.024Z,9.27
2018-03-07T17:36:52.519Z,8.57
2018-03-07T17:39:20.069Z,8.83
2018-03-07T17:41:47.978Z,8.27
2018-03-07T17:44:15.504Z,8.27
2018-03-07T17:46:43.397Z,8.73
2018-03-07T17:49:10.895Z,9.20
2018-03-07T17:51:38.387Z,7.57
2018-03-07T17:54:05.889Z,8.37
2018-03-07T17:56:33.382Z,8.20
2018-03-07T17:59:01.863Z,8.90
2018-03-07T18:01:29.762Z,8.17
2018-03-07T18:03:57.639Z,9.07
2018-03-07T18:06:25.159Z,9.30
2018-03-07T18:08:52.716Z,8.67
2018-03-07T18:11:20.215Z,9.23
2018-03-07T18:13:47.752Z,8.93
2018-03-07T18:16:15.652Z,9.00
2018-03-07T18:18:43.206Z,8.87
2018-03-07T18:21:10.719Z,9.10
2018-03-07T18:23:38.239Z,9.60
2018-03-07T18:26:05.735Z,10.03
2018-03-07T18:28:33.229Z,9.30
2018-03-07T18:31:00.752Z,9.07
2018-03-07T18:33:28.238Z,9.00
2018-03-07T18:35:55.766Z,7.77
2018-03-07T18:38:23.280Z,8.63
2018-03-07T18:40:50.788Z,8.30
2018-03-07T18:43:18.281Z,9.03
2018-03-07T18:45:45.776Z,9.20
2018-03-07T18:48:13.259Z,9.43
2018-03-07T18:50:40.747Z,8.90
2018-03-07T18:53:08.246Z,9.40
2018-03-07T18:55:35.735Z,10.00
2018-03-07T18:58:03.673Z,9.50
2018-03-07T19:00:31.169Z,8.50
2018-03-07T19:02:58.746Z,11.40
2018-03-07T19:05:26.241Z,12.30
2018-03-07T19:07:53.737Z,14.17
2018-03-07T19:10:21.690Z,14.93
2018-03-07T19:12:49.631Z,15.40
2018-03-07T19:15:19.081Z,16.17
2018-03-07T19:17:47.028Z,16.90
2018-03-07T19:20:18.432Z,16.43
2018-03-07T19:22:45.954Z,16.83
2018-03-07T19:25:13.863Z,15.63
2018-03-07T19:27:41.351Z,17.00
2018-03-07T19:30:09.128Z,16.03
2018-03-07T19:32:36.701Z,17.17
2018-03-07T19:35:04.612Z,16.83
2018-03-07T19:37:32.195Z,16.20
2018-03-07T19:39:59.681Z,15.40
2018-03-07T19:42:27.584Z,16.90
2018-03-07T19:44:55.079Z,16.07
2018-03-07T19:47:22.602Z,16.53
2018-03-07T19:49:50.107Z,16.00
2018-03-07T19:52:19.488Z,15.80
2018-03-07T19:54:49.591Z,15.60
2018-03-07T19:57:17.164Z,16.37
2018-03-07T19:59:44.679Z,15.73
2018-03-07T20:02:12.212Z,16.80
2018-03-07T20:04:40.110Z,17.47
2018-03-07T20:07:08.588Z,15.97
2018-03-07T20:09:36.108Z,16.70
2018-03-07T20:12:04.009Z,16.30
2018-03-07T20:14:31.500Z,16.63
2018-03-07T20:16:59.052Z,16.07
2018-03-07T20:19:26.639Z,16.00
2018-03-07T20:21:54.147Z,16.43
2018-03-07T20:24:21.669Z,14.90
2018-03-07T20:26:49.579Z,16.40
2018-03-07T20:29:17.078Z,16.50
2018-03-07T20:31:44.608Z,17.63
2018-03-07T20:34:12.126Z,16.57
2018-03-07T20:36:39.626Z,16.60
2018-03-07T20:39:07.121Z,16.07
2018-03-07T20:41:35.042Z,17.47
2018-03-07T20:44:03.140Z,18.10
2018-03-07T20:46:30.653Z,17.70
2018-03-07T20:48:58.164Z,18.17
2018-03-07T20:51:26.091Z,18.50
2018-03-07T20:53:53.611Z,18.87
2018-03-07T20:56:21.551Z,19.33
2018-03-07T20:58:49.067Z,19.10
2018-03-07T21:01:16.624Z,17.77
2018-03-07T21:03:44.781Z,19.43
2018-03-07T21:06:12.343Z,19.17
2018-03-07T21:08:39.851Z,19.07
2018-03-07T21:11:07.348Z,19.53
2018-03-07T21:13:34.856Z,18.60
2018-03-07T21:16:02.405Z,18.30
2018-03-07T21:18:30.736Z,20.00
2018-03-07T21:20:58.242Z,19.73
2018-03-07T21:23:25.744Z,19.77
2018-03-07T21:25:53.351Z,19.53
2018-03-07T21:28:20.863Z,20.13
2018-03-07T21:30:48.921Z,20.10
2018-03-07T21:33:16.824Z,19.70
2018-03-07T21:35:44.324Z,18.67
2018-03-07T21:38:11.848Z,21.30
2018-03-07T21:40:39.405Z,20.93
2018-03-07T21:43:07.256Z,19.80
2018-03-07T21:45:34.757Z,18.80
2018-03-07T21:48:02.259Z,18.13
2018-03-07T21:50:30.164Z,17.03
2018-03-07T21:52:57.678Z,16.07
2018-03-07T21:55:25.586Z,13.97
2018-03-07T21:57:53.084Z,14.03
2018-03-07T22:00:20.623Z,14.20
2018-03-07T22:02:49.192Z,13.53
2018-03-07T22:05:18.506Z,12.93
2018-03-07T22:07:48.496Z,12.10
2018-03-07T22:10:18.019Z,12.37
2018-03-07T22:12:48.093Z,13.30
2018-03-07T22:15:18.425Z,13.03
2018-03-07T22:17:47.725Z,12.97
2018-03-07T22:20:17.216Z,12.50
2018-03-07T22:22:47.150Z,12.30
2018-03-07T22:25:17.425Z,12.77
2018-03-07T22:27:47.703Z,11.83
2018-03-07T22:30:16.798Z,11.53
2018-03-07T22:32:47.836Z,13.30
2018-03-07T22:35:18.640Z,12.57
2018-03-07T22:37:49.123Z,13.60
2018-03-07T22:40:20.116Z,12.33
2018-03-07T22:42:50.606Z,12.00
2018-03-07T22:45:21.743Z,14.73
2018-03-07T22:47:51.549Z,14.40
2018-03-07T22:50:21.494Z,15.17
2018-03-07T22:52:52.801Z,15.20
2018-03-07T22:55:23.645Z,14.43
2018-03-07T22:57:52.160Z,15.57
2018-03-07T23:00:26.205Z,15.23
2018-03-07T23:02:54.724Z,15.50
2018-03-07T23:05:22.261Z,16.33
2018-03-07T23:07:49.807Z,16.33
2018-03-07T23:10:17.377Z,17.23
2018-03-07T23:12:44.868Z,17.10
2018-03-07T23:15:12.411Z,18.00
2018-03-07T23:17:39.911Z,18.00
2018-03-07T23:20:07.431Z,17.57
2018-03-07T23:22:34.933Z,19.23
2018-03-07T23:25:02.424Z,18.33
2018-03-07T23:27:29.952Z,18.47
2018-03-07T23:29:57.444Z,19.17
2018-03-07T23:32:24.946Z,20.90
2018-03-07T23:34:52.850Z,22.07
2018-03-07T23:37:20.348Z,22.03
2018-03-07T23:39:47.852Z,22.33
2018-03-07T23:42:15.367Z,22.70
2018-03-07T23:44:43.304Z,24.83
2018-03-07T23:47:10.808Z,25.00
2018-03-07T23:49:38.693Z,24.63
2018-03-07T23:52:06.199Z,24.43
2018-03-07T23:54:33.694Z,23.57
2018-03-07T23:57:01.661Z,23.43
2018-03-07T23:59:29.587Z,25.03
